sensor_id;sensor_type;location;lat;lon;timestamp;temperature;humidity
45339;DHT22;31071;51.478;5.710;2023-05-20T00:02:03;13.30;85.60
45339;DHT22;31071;51.478;5.710;2023-05-20T00:04:29;13.00;85.70
45339;DHT22;31071;51.478;5.710;2023-05-20T00:06:55;13.40;86.20
45339;DHT22;31071;51.478;5.710;2023-05-20T00:09:21;14.90;88.10
45339;DHT22;31071;51.478;5.710;2023-05-20T00:11:46;14.90;89.00
45339;DHT22;31071;51.478;5.710;2023-05-20T00:14:12;13.40;90.20
45339;DHT22;31071;51.478;5.710;2023-05-20T00:16:37;13.30;90.00
45339;DHT22;31071;51.478;5.710;2023-05-20T00:19:03;13.30;90.40
45339;DHT22;31071;51.478;5.710;2023-05-20T00:21:29;13.20;90.50
45339;DHT22;31071;51.478;5.710;2023-05-20T00:23:55;13.30;91.30
45339;DHT22;31071;51.478;5.710;2023-05-20T00:26:21;13.10;91.90
45339;DHT22;31071;51.478;5.710;2023-05-20T00:28:47;13.10;92.00
45339;DHT22;31071;51.478;5.710;2023-05-20T00:31:12;14.50;92.60
45339;DHT22;31071;51.478;5.710;2023-05-20T00:33:38;13.00;93.10
45339;DHT22;31071;51.478;5.710;2023-05-20T00:36:04;13.00;93.20
45339;DHT22;31071;51.478;5.710;2023-05-20T00:38:29;13.00;93.10
45339;DHT22;31071;51.478;5.710;2023-05-20T00:40:55;12.90;93.90
45339;DHT22;31071;51.478;5.710;2023-05-20T00:43:20;12.90;93.90
45339;DHT22;31071;51.478;5.710;2023-05-20T00:45:47;12.90;94.30
45339;DHT22;31071;51.478;5.710;2023-05-20T00:48:13;12.90;94.10
45339;DHT22;31071;51.478;5.710;2023-05-20T00:50:39;13.30;94.60
45339;DHT22;31071;51.478;5.710;2023-05-20T00:53:05;12.80;94.70
45339;DHT22;31071;51.478;5.710;2023-05-20T00:55:31;12.90;95.40
45339;DHT22;31071;51.478;5.710;2023-05-20T00:57:57;12.70;95.60
45339;DHT22;31071;51.478;5.710;2023-05-20T01:00:23;12.80;96.00
45339;DHT22;31071;51.478;5.710;2023-05-20T01:02:48;12.80;96.00
45339;DHT22;31071;51.478;5.710;2023-05-20T01:05:14;12.70;96.60
45339;DHT22;31071;51.478;5.710;2023-05-20T01:07:40;12.60;96.70
45339;DHT22;31071;51.478;5.710;2023-05-20T01:10:07;12.60;97.20
45339;DHT22;31071;51.478;5.710;2023-05-20T01:12:41;12.50;97.30
45339;DHT22;31071;51.478;5.710;2023-05-20T01:15:10;13.00;98.00
45339;DHT22;31071;51.478;5.710;2023-05-20T01:17:49;12.40;97.90
45339;DHT22;31071;51.478;5.710;2023-05-20T01:20:16;12.40;98.20
45339;DHT22;31071;51.478;5.710;2023-05-20T01:22:51;12.60;98.90
45339;DHT22;31071;51.478;5.710;2023-05-20T01:25:17;12.10;99.10
45339;DHT22;31071;51.478;5.710;2023-05-20T01:27:43;12.30;99.00
45339;DHT22;31071;51.478;5.710;2023-05-20T01:30:10;12.20;99.40
45339;DHT22;31071;51.478;5.710;2023-05-20T01:32:49;12.30;99.80
45339;DHT22;31071;51.478;5.710;2023-05-20T01:35:16;12.20;99.70
45339;DHT22;31071;51.478;5.710;2023-05-20T01:37:42;12.10;99.90
45339;DHT22;31071;51.478;5.710;2023-05-20T01:40:13;12.20;99.90
45339;DHT22;31071;51.478;5.710;2023-05-20T01:42:40;12.20;99.90
45339;DHT22;31071;51.478;5.710;2023-05-20T01:45:06;12.00;99.90
45339;DHT22;31071;51.478;5.710;2023-05-20T01:47:32;12.00;99.90
45339;DHT22;31071;51.478;5.710;2023-05-20T01:49:58;12.00;99.90
45339;DHT22;31071;51.478;5.710;2023-05-20T01:52:23;12.50;99.90
45339;DHT22;31071;51.478;5.710;2023-05-20T01:54:49;12.00;99.90
45339;DHT22;31071;51.478;5.710;2023-05-20T01:57:18;11.90;99.90
45339;DHT22;31071;51.478;5.710;2023-05-20T01:59:44;11.90;99.90
45339;DHT22;31071;51.478;5.710;2023-05-20T02:02:09;12.80;99.90
45339;DHT22;31071;51.478;5.710;2023-05-20T02:04:35;11.80;99.90
45339;DHT22;31071;51.478;5.710;2023-05-20T02:07:01;12.60;99.90
45339;DHT22;31071;51.478;5.710;2023-05-20T02:09:27;11.70;99.90
45339;DHT22;31071;51.478;5.710;2023-05-20T02:11:52;11.70;99.90
45339;DHT22;31071;51.478;5.710;2023-05-20T02:14:18;11.70;99.90
45339;DHT22;31071;51.478;5.710;2023-05-20T02:16:45;11.70;99.90
45339;DHT22;31071;51.478;5.710;2023-05-20T02:19:11;11.70;99.90
45339;DHT22;31071;51.478;5.710;2023-05-20T02:21:42;11.70;99.90
45339;DHT22;31071;51.478;5.710;2023-05-20T02:24:09;11.70;99.90
45339;DHT22;31071;51.478;5.710;2023-05-20T02:26:35;11.60;99.90
45339;DHT22;31071;51.478;5.710;2023-05-20T02:29:00;11.70;99.90
45339;DHT22;31071;51.478;5.710;2023-05-20T02:31:26;11.60;99.90
45339;DHT22;31071;51.478;5.710;2023-05-20T02:33:51;11.50;99.90
45339;DHT22;31071;51.478;5.710;2023-05-20T02:36:17;13.40;99.90
45339;DHT22;31071;51.478;5.710;2023-05-20T02:38:43;11.50;99.90
45339;DHT22;31071;51.478;5.710;2023-05-20T02:41:08;11.40;99.90
45339;DHT22;31071;51.478;5.710;2023-05-20T02:43:34;11.50;99.90
45339;DHT22;31071;51.478;5.710;2023-05-20T02:46:03;11.40;99.90
45339;DHT22;31071;51.478;5.710;2023-05-20T02:48:29;12.60;99.90
45339;DHT22;31071;51.478;5.710;2023-05-20T02:50:55;11.50;99.90
45339;DHT22;31071;51.478;5.710;2023-05-20T02:53:21;11.60;99.90
45339;DHT22;31071;51.478;5.710;2023-05-20T02:55:46;12.80;99.90
45339;DHT22;31071;51.478;5.710;2023-05-20T02:58:13;11.60;99.90
45339;DHT22;31071;51.478;5.710;2023-05-20T03:00:38;11.70;99.90
45339;DHT22;31071;51.478;5.710;2023-05-20T03:03:07;11.70;99.90
45339;DHT22;31071;51.478;5.710;2023-05-20T03:05:34;11.70;99.90
45339;DHT22;31071;51.478;5.710;2023-05-20T03:08:08;11.60;99.90
45339;DHT22;31071;51.478;5.710;2023-05-20T03:10:39;11.70;99.90
45339;DHT22;31071;51.478;5.710;2023-05-20T03:13:06;11.70;99.90
45339;DHT22;31071;51.478;5.710;2023-05-20T03:15:34;11.70;99.90
45339;DHT22;31071;51.478;5.710;2023-05-20T03:18:02;11.70;99.90
45339;DHT22;31071;51.478;5.710;2023-05-20T03:20:28;11.70;99.90
45339;DHT22;31071;51.478;5.710;2023-05-20T03:22:54;11.90;99.90
45339;DHT22;31071;51.478;5.710;2023-05-20T03:25:21;11.50;99.90
45339;DHT22;31071;51.478;5.710;2023-05-20T03:27:47;12.50;99.90
45339;DHT22;31071;51.478;5.710;2023-05-20T03:30:12;11.60;99.90
45339;DHT22;31071;51.478;5.710;2023-05-20T03:32:38;11.60;99.90
45339;DHT22;31071;51.478;5.710;2023-05-20T03:35:05;11.60;99.90
45339;DHT22;31071;51.478;5.710;2023-05-20T03:37:30;11.60;99.90
45339;DHT22;31071;51.478;5.710;2023-05-20T03:39:56;11.50;99.90
45339;DHT22;31071;51.478;5.710;2023-05-20T03:42:21;11.40;99.90
45339;DHT22;31071;51.478;5.710;2023-05-20T03:44:47;11.50;99.90
45339;DHT22;31071;51.478;5.710;2023-05-20T03:47:12;11.40;99.90
45339;DHT22;31071;51.478;5.710;2023-05-20T03:49:38;11.40;99.90
45339;DHT22;31071;51.478;5.710;2023-05-20T03:52:05;11.60;99.90
45339;DHT22;31071;51.478;5.710;2023-05-20T03:54:31;11.40;99.90
45339;DHT22;31071;51.478;5.710;2023-05-20T03:56:56;11.40;99.90
45339;DHT22;31071;51.478;5.710;2023-05-20T03:59:22;11.40;99.90
45339;DHT22;31071;51.478;5.710;2023-05-20T04:01:48;11.30;99.90
45339;DHT22;31071;51.478;5.710;2023-05-20T04:04:13;11.40;99.90
45339;DHT22;31071;51.478;5.710;2023-05-20T04:06:39;12.00;99.90
45339;DHT22;31071;51.478;5.710;2023-05-20T04:09:05;11.20;99.90
45339;DHT22;31071;51.478;5.710;2023-05-20T04:11:30;11.30;99.90
45339;DHT22;31071;51.478;5.710;2023-05-20T04:13:56;11.30;99.90
45339;DHT22;31071;51.478;5.710;2023-05-20T04:16:24;11.30;99.90
45339;DHT22;31071;51.478;5.710;2023-05-20T04:18:50;11.20;99.90
45339;DHT22;31071;51.478;5.710;2023-05-20T04:21:16;11.30;99.90
45339;DHT22;31071;51.478;5.710;2023-05-20T04:23:43;11.30;99.90
45339;DHT22;31071;51.478;5.710;2023-05-20T04:26:08;11.30;99.90
45339;DHT22;31071;51.478;5.710;2023-05-20T04:28:34;11.30;99.90
45339;DHT22;31071;51.478;5.710;2023-05-20T04:31:02;11.30;99.90
45339;DHT22;31071;51.478;5.710;2023-05-20T04:33:31;11.30;99.90
45339;DHT22;31071;51.478;5.710;2023-05-20T04:35:57;11.40;99.90
45339;DHT22;31071;51.478;5.710;2023-05-20T04:38:26;11.70;99.90
45339;DHT22;31071;51.478;5.710;2023-05-20T04:40:55;11.40;99.90
45339;DHT22;31071;51.478;5.710;2023-05-20T04:43:24;11.50;99.90
45339;DHT22;31071;51.478;5.710;2023-05-20T04:45:51;11.60;99.90
45339;DHT22;31071;51.478;5.710;2023-05-20T04:48:17;11.70;99.90
45339;DHT22;31071;51.478;5.710;2023-05-20T04:50:43;11.70;99.90
45339;DHT22;31071;51.478;5.710;2023-05-20T04:53:10;11.80;99.90
45339;DHT22;31071;51.478;5.710;2023-05-20T04:55:35;11.90;99.90
45339;DHT22;31071;51.478;5.710;2023-05-20T04:58:02;12.00;99.90
45339;DHT22;31071;51.478;5.710;2023-05-20T05:00:28;12.30;99.90
45339;DHT22;31071;51.478;5.710;2023-05-20T05:02:54;12.00;99.90
45339;DHT22;31071;51.478;5.710;2023-05-20T05:05:19;12.20;99.90
45339;DHT22;31071;51.478;5.710;2023-05-20T05:07:45;12.30;99.90
45339;DHT22;31071;51.478;5.710;2023-05-20T05:10:11;12.30;99.90
45339;DHT22;31071;51.478;5.710;2023-05-20T05:12:36;13.40;99.90
45339;DHT22;31071;51.478;5.710;2023-05-20T05:15:02;12.40;99.90
45339;DHT22;31071;51.478;5.710;2023-05-20T05:17:28;12.50;99.90
45339;DHT22;31071;51.478;5.710;2023-05-20T05:19:53;12.60;99.90
45339;DHT22;31071;51.478;5.710;2023-05-20T05:22:19;12.60;99.90
45339;DHT22;31071;51.478;5.710;2023-05-20T05:24:46;12.60;99.90
45339;DHT22;31071;51.478;5.710;2023-05-20T05:27:11;12.40;99.90
45339;DHT22;31071;51.478;5.710;2023-05-20T05:29:37;13.30;99.90
45339;DHT22;31071;51.478;5.710;2023-05-20T05:32:02;12.60;99.90
45339;DHT22;31071;51.478;5.710;2023-05-20T05:34:28;12.90;99.90
45339;DHT22;31071;51.478;5.710;2023-05-20T05:36:55;13.00;99.90
45339;DHT22;31071;51.478;5.710;2023-05-20T05:39:20;13.10;99.90
45339;DHT22;31071;51.478;5.710;2023-05-20T05:41:46;13.20;99.90
45339;DHT22;31071;51.478;5.710;2023-05-20T05:44:12;13.30;99.90
45339;DHT22;31071;51.478;5.710;2023-05-20T05:46:37;13.40;99.90
45339;DHT22;31071;51.478;5.710;2023-05-20T05:49:03;13.40;99.90
45339;DHT22;31071;51.478;5.710;2023-05-20T05:51:29;13.40;99.90
45339;DHT22;31071;51.478;5.710;2023-05-20T05:53:55;13.90;99.90
45339;DHT22;31071;51.478;5.710;2023-05-20T05:56:20;13.50;99.90
45339;DHT22;31071;51.478;5.710;2023-05-20T05:58:46;13.50;99.90
45339;DHT22;31071;51.478;5.710;2023-05-20T06:01:12;14.10;99.90
45339;DHT22;31071;51.478;5.710;2023-05-20T06:03:38;13.70;99.90
45339;DHT22;31071;51.478;5.710;2023-05-20T06:06:03;15.10;99.90
45339;DHT22;31071;51.478;5.710;2023-05-20T06:08:29;13.80;99.90
45339;DHT22;31071;51.478;5.710;2023-05-20T06:10:54;13.80;99.90
45339;DHT22;31071;51.478;5.710;2023-05-20T06:13:22;13.80;99.90
45339;DHT22;31071;51.478;5.710;2023-05-20T06:15:50;14.70;99.90
45339;DHT22;31071;51.478;5.710;2023-05-20T06:18:16;14.10;99.90
45339;DHT22;31071;51.478;5.710;2023-05-20T06:20:42;14.10;99.90
45339;DHT22;31071;51.478;5.710;2023-05-20T06:23:08;14.20;99.90
45339;DHT22;31071;51.478;5.710;2023-05-20T06:25:34;14.30;99.90
45339;DHT22;31071;51.478;5.710;2023-05-20T06:28:00;14.90;99.90
45339;DHT22;31071;51.478;5.710;2023-05-20T06:32:51;14.50;99.90
45339;DHT22;31071;51.478;5.710;2023-05-20T06:35:17;15.40;99.90
45339;DHT22;31071;51.478;5.710;2023-05-20T06:37:43;14.80;99.90
45339;DHT22;31071;51.478;5.710;2023-05-20T06:40:09;14.80;99.90
45339;DHT22;31071;51.478;5.710;2023-05-20T06:42:34;14.80;99.90
45339;DHT22;31071;51.478;5.710;2023-05-20T06:45:00;14.90;99.90
45339;DHT22;31071;51.478;5.710;2023-05-20T06:47:27;14.90;99.30
45339;DHT22;31071;51.478;5.710;2023-05-20T06:49:52;15.80;99.80
45339;DHT22;31071;51.478;5.710;2023-05-20T06:52:18;15.10;99.30
45339;DHT22;31071;51.478;5.710;2023-05-20T06:54:43;16.60;99.70
45339;DHT22;31071;51.478;5.710;2023-05-20T06:57:09;16.50;99.50
45339;DHT22;31071;51.478;5.710;2023-05-20T06:59:52;15.50;98.40
45339;DHT22;31071;51.478;5.710;2023-05-20T07:02:20;15.60;98.70
45339;DHT22;31071;51.478;5.710;2023-05-20T07:04:47;15.70;98.20
45339;DHT22;31071;51.478;5.710;2023-05-20T07:07:13;15.80;98.00
45339;DHT22;31071;51.478;5.710;2023-05-20T07:09:39;17.30;97.60
45339;DHT22;31071;51.478;5.710;2023-05-20T07:12:05;16.70;97.30
45339;DHT22;31071;51.478;5.710;2023-05-20T07:14:30;16.30;96.70
45339;DHT22;31071;51.478;5.710;2023-05-20T07:16:58;16.40;96.50
45339;DHT22;31071;51.478;5.710;2023-05-20T07:19:24;16.50;95.80
45339;DHT22;31071;51.478;5.710;2023-05-20T07:21:49;18.40;96.20
45339;DHT22;31071;51.478;5.710;2023-05-20T07:24:15;16.90;95.20
45339;DHT22;31071;51.478;5.710;2023-05-20T07:26:41;17.20;94.40
45339;DHT22;31071;51.478;5.710;2023-05-20T07:29:31;17.60;93.50
45339;DHT22;31071;51.478;5.710;2023-05-20T07:31:58;18.20;91.20
45339;DHT22;31071;51.478;5.710;2023-05-20T07:34:24;18.10;90.80
45339;DHT22;31071;51.478;5.710;2023-05-20T07:36:49;17.60;91.60
45339;DHT22;31071;51.478;5.710;2023-05-20T07:39:15;18.20;92.30
45339;DHT22;31071;51.478;5.710;2023-05-20T07:41:41;17.90;92.00
45339;DHT22;31071;51.478;5.710;2023-05-20T07:44:07;19.50;90.90
45339;DHT22;31071;51.478;5.710;2023-05-20T07:46:33;20.40;90.20
45339;DHT22;31071;51.478;5.710;2023-05-20T07:48:59;18.60;86.80
45339;DHT22;31071;51.478;5.710;2023-05-20T07:51:25;18.70;87.10
45339;DHT22;31071;51.478;5.710;2023-05-20T07:53:50;18.00;86.20
45339;DHT22;31071;51.478;5.710;2023-05-20T07:56:16;20.00;90.00
45339;DHT22;31071;51.478;5.710;2023-05-20T07:58:42;17.90;90.00
45339;DHT22;31071;51.478;5.710;2023-05-20T08:01:08;18.00;88.60
45339;DHT22;31071;51.478;5.710;2023-05-20T08:03:34;17.90;90.10
45339;DHT22;31071;51.478;5.710;2023-05-20T08:06:01;18.60;90.40
45339;DHT22;31071;51.478;5.710;2023-05-20T08:08:27;17.80;89.70
45339;DHT22;31071;51.478;5.710;2023-05-20T08:10:55;17.80;89.90
45339;DHT22;31071;51.478;5.710;2023-05-20T08:13:21;18.00;90.00
45339;DHT22;31071;51.478;5.710;2023-05-20T08:15:47;18.10;89.40
45339;DHT22;31071;51.478;5.710;2023-05-20T08:18:16;18.30;89.00
45339;DHT22;31071;51.478;5.710;2023-05-20T08:20:41;18.30;88.50
45339;DHT22;31071;51.478;5.710;2023-05-20T08:23:07;18.40;87.60
45339;DHT22;31071;51.478;5.710;2023-05-20T08:25:33;18.60;87.70
45339;DHT22;31071;51.478;5.710;2023-05-20T08:28:02;18.80;86.90
45339;DHT22;31071;51.478;5.710;2023-05-20T08:30:28;18.90;86.10
45339;DHT22;31071;51.478;5.710;2023-05-20T08:32:55;18.80;86.50
45339;DHT22;31071;51.478;5.710;2023-05-20T08:35:21;19.00;84.40
45339;DHT22;31071;51.478;5.710;2023-05-20T08:37:46;18.70;83.40
45339;DHT22;31071;51.478;5.710;2023-05-20T08:40:12;18.70;85.30
45339;DHT22;31071;51.478;5.710;2023-05-20T08:42:42;19.00;86.00
45339;DHT22;31071;51.478;5.710;2023-05-20T08:45:12;19.20;84.20
45339;DHT22;31071;51.478;5.710;2023-05-20T08:47:40;20.60;83.90
45339;DHT22;31071;51.478;5.710;2023-05-20T08:50:08;19.90;83.10
45339;DHT22;31071;51.478;5.710;2023-05-20T08:52:37;19.10;82.20
45339;DHT22;31071;51.478;5.710;2023-05-20T08:55:08;21.20;83.40
45339;DHT22;31071;51.478;5.710;2023-05-20T08:57:36;19.40;81.90
45339;DHT22;31071;51.478;5.710;2023-05-20T09:00:04;21.10;81.40
45339;DHT22;31071;51.478;5.710;2023-05-20T09:02:36;19.50;82.60
45339;DHT22;31071;51.478;5.710;2023-05-20T09:05:03;19.60;81.60
45339;DHT22;31071;51.478;5.710;2023-05-20T09:07:29;19.60;81.60
45339;DHT22;31071;51.478;5.710;2023-05-20T09:09:55;19.70;81.50
45339;DHT22;31071;51.478;5.710;2023-05-20T09:12:21;20.20;81.10
45339;DHT22;31071;51.478;5.710;2023-05-20T09:14:47;19.90;82.30
45339;DHT22;31071;51.478;5.710;2023-05-20T09:17:12;21.10;83.40
45339;DHT22;31071;51.478;5.710;2023-05-20T09:19:38;20.50;80.90
45339;DHT22;31071;51.478;5.710;2023-05-20T09:22:04;20.00;80.30
45339;DHT22;31071;51.478;5.710;2023-05-20T09:24:30;20.20;81.30
45339;DHT22;31071;51.478;5.710;2023-05-20T09:26:56;20.10;79.70
45339;DHT22;31071;51.478;5.710;2023-05-20T09:29:24;20.10;79.70
45339;DHT22;31071;51.478;5.710;2023-05-20T09:32:06;20.20;78.40
45339;DHT22;31071;51.478;5.710;2023-05-20T09:34:31;20.40;79.10
45339;DHT22;31071;51.478;5.710;2023-05-20T09:36:58;20.30;78.40
45339;DHT22;31071;51.478;5.710;2023-05-20T09:39:29;20.50;75.00
45339;DHT22;31071;51.478;5.710;2023-05-20T09:42:00;20.80;76.90
45339;DHT22;31071;51.478;5.710;2023-05-20T09:44:29;22.00;75.80
45339;DHT22;31071;51.478;5.710;2023-05-20T09:46:59;21.40;73.50
45339;DHT22;31071;51.478;5.710;2023-05-20T09:49:31;21.60;72.70
45339;DHT22;31071;51.478;5.710;2023-05-20T09:51:58;22.00;72.30
45339;DHT22;31071;51.478;5.710;2023-05-20T09:54:25;22.70;71.80
45339;DHT22;31071;51.478;5.710;2023-05-20T09:56:52;22.90;68.50
45339;DHT22;31071;51.478;5.710;2023-05-20T09:59:20;22.50;68.00
45339;DHT22;31071;51.478;5.710;2023-05-20T10:01:46;23.10;69.20
45339;DHT22;31071;51.478;5.710;2023-05-20T10:04:12;22.30;71.40
45339;DHT22;31071;51.478;5.710;2023-05-20T10:15:37;22.10;69.50
45339;DHT22;31071;51.478;5.710;2023-05-20T10:18:20;22.40;68.20
45339;DHT22;31071;51.478;5.710;2023-05-20T10:20:49;22.50;67.50
45339;DHT22;31071;51.478;5.710;2023-05-20T10:23:23;22.80;66.40
45339;DHT22;31071;51.478;5.710;2023-05-20T10:25:53;23.30;67.70
45339;DHT22;31071;51.478;5.710;2023-05-20T10:28:49;23.90;65.80
45339;DHT22;31071;51.478;5.710;2023-05-20T10:31:19;23.50;67.10
45339;DHT22;31071;51.478;5.710;2023-05-20T10:33:51;23.20;65.70
45339;DHT22;31071;51.478;5.710;2023-05-20T10:36:25;23.10;66.70
45339;DHT22;31071;51.478;5.710;2023-05-20T10:38:56;23.20;65.20
45339;DHT22;31071;51.478;5.710;2023-05-20T10:41:27;22.50;66.30
45339;DHT22;31071;51.478;5.710;2023-05-20T10:44:05;22.00;67.70
45339;DHT22;31071;51.478;5.710;2023-05-20T10:46:33;22.10;67.50
45339;DHT22;31071;51.478;5.710;2023-05-20T10:49:21;22.30;68.50
45339;DHT22;31071;51.478;5.710;2023-05-20T10:51:49;22.80;67.50
45339;DHT22;31071;51.478;5.710;2023-05-20T10:54:15;23.00;66.70
45339;DHT22;31071;51.478;5.710;2023-05-20T10:56:50;23.10;66.20
45339;DHT22;31071;51.478;5.710;2023-05-20T10:59:17;23.20;64.30
45339;DHT22;31071;51.478;5.710;2023-05-20T11:01:42;23.10;64.60
45339;DHT22;31071;51.478;5.710;2023-05-20T11:04:08;23.10;65.00
45339;DHT22;31071;51.478;5.710;2023-05-20T11:06:34;23.20;64.70
45339;DHT22;31071;51.478;5.710;2023-05-20T11:09:04;23.40;64.90
45339;DHT22;31071;51.478;5.710;2023-05-20T11:11:30;23.70;63.90
45339;DHT22;31071;51.478;5.710;2023-05-20T11:13:56;24.10;62.80
45339;DHT22;31071;51.478;5.710;2023-05-20T11:16:22;24.60;62.70
45339;DHT22;31071;51.478;5.710;2023-05-20T11:18:48;24.30;62.40
45339;DHT22;31071;51.478;5.710;2023-05-20T11:21:14;24.10;62.80
45339;DHT22;31071;51.478;5.710;2023-05-20T11:23:41;23.90;63.70
45339;DHT22;31071;51.478;5.710;2023-05-20T11:26:06;23.90;62.60
45339;DHT22;31071;51.478;5.710;2023-05-20T11:28:38;24.20;63.00
45339;DHT22;31071;51.478;5.710;2023-05-20T11:31:04;24.10;61.50
45339;DHT22;31071;51.478;5.710;2023-05-20T11:33:30;24.40;62.00
45339;DHT22;31071;51.478;5.710;2023-05-20T11:35:56;24.60;60.80
45339;DHT22;31071;51.478;5.710;2023-05-20T11:38:22;24.80;60.20
45339;DHT22;31071;51.478;5.710;2023-05-20T11:40:54;24.20;60.90
45339;DHT22;31071;51.478;5.710;2023-05-20T11:43:22;24.70;62.30
45339;DHT22;31071;51.478;5.710;2023-05-20T11:48:18;23.70;62.50
45339;DHT22;31071;51.478;5.710;2023-05-20T11:50:45;23.80;62.80
45339;DHT22;31071;51.478;5.710;2023-05-20T11:53:19;23.90;62.50
45339;DHT22;31071;51.478;5.710;2023-05-20T11:55:56;24.20;62.40
45339;DHT22;31071;51.478;5.710;2023-05-20T11:58:23;24.50;61.00
45339;DHT22;31071;51.478;5.710;2023-05-20T12:00:49;24.70;60.40
45339;DHT22;31071;51.478;5.710;2023-05-20T12:03:15;24.60;59.90
45339;DHT22;31071;51.478;5.710;2023-05-20T12:05:41;24.80;61.00
45339;DHT22;31071;51.478;5.710;2023-05-20T12:08:07;24.20;60.40
45339;DHT22;31071;51.478;5.710;2023-05-20T12:10:37;25.80;64.00
45339;DHT22;31071;51.478;5.710;2023-05-20T12:13:03;24.30;60.50
45339;DHT22;31071;51.478;5.710;2023-05-20T12:15:35;24.60;60.30
45339;DHT22;31071;51.478;5.710;2023-05-20T12:18:01;25.00;60.50
45339;DHT22;31071;51.478;5.710;2023-05-20T12:20:27;25.40;59.10
45339;DHT22;31071;51.478;5.710;2023-05-20T12:22:53;25.30;59.20
45339;DHT22;31071;51.478;5.710;2023-05-20T12:25:19;25.80;60.70
45339;DHT22;31071;51.478;5.710;2023-05-20T12:27:47;25.30;59.50
45339;DHT22;31071;51.478;5.710;2023-05-20T12:30:18;25.70;61.00
45339;DHT22;31071;51.478;5.710;2023-05-20T12:32:45;25.80;58.20
45339;DHT22;31071;51.478;5.710;2023-05-20T12:35:11;25.80;59.50
45339;DHT22;31071;51.478;5.710;2023-05-20T12:37:41;26.20;63.10
45339;DHT22;31071;51.478;5.710;2023-05-20T12:40:14;25.30;60.10
45339;DHT22;31071;51.478;5.710;2023-05-20T12:42:41;25.10;61.90
45339;DHT22;31071;51.478;5.710;2023-05-20T12:45:08;25.10;61.00
45339;DHT22;31071;51.478;5.710;2023-05-20T12:47:34;25.00;60.90
45339;DHT22;31071;51.478;5.710;2023-05-20T12:50:05;24.50;64.00
45339;DHT22;31071;51.478;5.710;2023-05-20T12:52:31;24.30;63.80
45339;DHT22;31071;51.478;5.710;2023-05-20T12:55:00;23.90;63.20
45339;DHT22;31071;51.478;5.710;2023-05-20T12:57:26;23.90;63.20
45339;DHT22;31071;51.478;5.710;2023-05-20T12:59:52;24.20;62.10
45339;DHT22;31071;51.478;5.710;2023-05-20T13:02:18;23.70;63.00
45339;DHT22;31071;51.478;5.710;2023-05-20T13:04:43;23.50;64.00
45339;DHT22;31071;51.478;5.710;2023-05-20T13:07:09;23.40;65.70
45339;DHT22;31071;51.478;5.710;2023-05-20T13:09:35;23.50;65.40
45339;DHT22;31071;51.478;5.710;2023-05-20T13:12:02;24.20;62.80
45339;DHT22;31071;51.478;5.710;2023-05-20T13:14:28;24.40;60.30
45339;DHT22;31071;51.478;5.710;2023-05-20T13:16:54;24.60;60.30
45339;DHT22;31071;51.478;5.710;2023-05-20T13:19:21;24.60;59.90
45339;DHT22;31071;51.478;5.710;2023-05-20T13:21:48;24.90;60.90
45339;DHT22;31071;51.478;5.710;2023-05-20T13:24:14;25.30;60.30
45339;DHT22;31071;51.478;5.710;2023-05-20T13:26:40;25.40;59.50
45339;DHT22;31071;51.478;5.710;2023-05-20T13:29:06;26.00;58.50
45339;DHT22;31071;51.478;5.710;2023-05-20T13:31:32;25.80;58.50
45339;DHT22;31071;51.478;5.710;2023-05-20T13:33:59;27.10;59.60
45339;DHT22;31071;51.478;5.710;2023-05-20T13:36:25;25.50;58.40
45339;DHT22;31071;51.478;5.710;2023-05-20T13:38:57;24.90;57.60
45339;DHT22;31071;51.478;5.710;2023-05-20T13:41:27;25.80;59.90
45339;DHT22;31071;51.478;5.710;2023-05-20T13:43:55;26.50;57.10
45339;DHT22;31071;51.478;5.710;2023-05-20T13:46:20;26.20;56.50
45339;DHT22;31071;51.478;5.710;2023-05-20T13:48:46;25.70;57.80
45339;DHT22;31071;51.478;5.710;2023-05-20T13:51:12;26.30;60.00
45339;DHT22;31071;51.478;5.710;2023-05-20T13:53:38;25.50;61.50
45339;DHT22;31071;51.478;5.710;2023-05-20T13:56:10;25.40;63.30
45339;DHT22;31071;51.478;5.710;2023-05-20T13:58:36;24.30;62.70
45339;DHT22;31071;51.478;5.710;2023-05-20T14:01:04;24.50;62.60
45339;DHT22;31071;51.478;5.710;2023-05-20T14:03:31;24.20;60.80
45339;DHT22;31071;51.478;5.710;2023-05-20T14:05:58;24.00;61.30
45339;DHT22;31071;51.478;5.710;2023-05-20T14:08:24;23.10;63.10
45339;DHT22;31071;51.478;5.710;2023-05-20T14:10:50;23.50;61.00
45339;DHT22;31071;51.478;5.710;2023-05-20T14:13:21;25.30;62.40
45339;DHT22;31071;51.478;5.710;2023-05-20T14:15:46;24.90;61.30
45339;DHT22;31071;51.478;5.710;2023-05-20T14:18:12;23.40;61.80
45339;DHT22;31071;51.478;5.710;2023-05-20T14:20:37;24.60;62.40
45339;DHT22;31071;51.478;5.710;2023-05-20T14:23:03;24.20;60.90
45339;DHT22;31071;51.478;5.710;2023-05-20T14:25:28;24.70;62.90
45339;DHT22;31071;51.478;5.710;2023-05-20T14:27:54;23.90;61.40
45339;DHT22;31071;51.478;5.710;2023-05-20T14:30:19;23.40;61.70
45339;DHT22;31071;51.478;5.710;2023-05-20T14:32:45;24.00;61.70
45339;DHT22;31071;51.478;5.710;2023-05-20T14:35:11;24.00;61.20
45339;DHT22;31071;51.478;5.710;2023-05-20T14:37:36;24.00;60.90
45339;DHT22;31071;51.478;5.710;2023-05-20T14:40:03;24.00;60.00
45339;DHT22;31071;51.478;5.710;2023-05-20T14:42:29;23.60;60.20
45339;DHT22;31071;51.478;5.710;2023-05-20T14:44:55;23.40;61.80
45339;DHT22;31071;51.478;5.710;2023-05-20T14:47:20;23.50;62.00
45339;DHT22;31071;51.478;5.710;2023-05-20T14:49:47;23.80;61.30
45339;DHT22;31071;51.478;5.710;2023-05-20T14:52:14;23.60;61.30
45339;DHT22;31071;51.478;5.710;2023-05-20T14:54:41;23.40;61.60
45339;DHT22;31071;51.478;5.710;2023-05-20T14:57:06;24.00;63.50
45339;DHT22;31071;51.478;5.710;2023-05-20T14:59:32;24.60;62.30
45339;DHT22;31071;51.478;5.710;2023-05-20T15:01:58;25.70;62.00
45339;DHT22;31071;51.478;5.710;2023-05-20T15:04:23;25.20;60.30
45339;DHT22;31071;51.478;5.710;2023-05-20T15:06:50;24.20;58.90
45339;DHT22;31071;51.478;5.710;2023-05-20T15:09:15;25.30;60.80
45339;DHT22;31071;51.478;5.710;2023-05-20T15:11:41;24.60;58.40
45339;DHT22;31071;51.478;5.710;2023-05-20T15:14:06;24.70;59.90
45339;DHT22;31071;51.478;5.710;2023-05-20T15:16:32;24.60;59.20
45339;DHT22;31071;51.478;5.710;2023-05-20T15:18:57;24.60;57.50
45339;DHT22;31071;51.478;5.710;2023-05-20T15:21:23;24.70;58.60
45339;DHT22;31071;51.478;5.710;2023-05-20T15:23:48;25.30;58.80
45339;DHT22;31071;51.478;5.710;2023-05-20T15:26:14;25.00;58.10
45339;DHT22;31071;51.478;5.710;2023-05-20T15:28:39;25.00;58.50
45339;DHT22;31071;51.478;5.710;2023-05-20T15:31:06;24.60;57.80
45339;DHT22;31071;51.478;5.710;2023-05-20T15:33:32;24.70;57.70
45339;DHT22;31071;51.478;5.710;2023-05-20T15:35:58;24.40;58.10
45339;DHT22;31071;51.478;5.710;2023-05-20T15:38:23;24.20;58.90
45339;DHT22;31071;51.478;5.710;2023-05-20T15:40:49;24.30;58.60
45339;DHT22;31071;51.478;5.710;2023-05-20T15:43:15;24.30;58.90